GosportINWX Station Historical Data
 
Daily Summary for July 14, 2020 Units:  English    Metric   Both
Daily Weekly Monthly Yearly Custom
  Current: High: Low: Average:
Temperature: 61.2 °F 65.3 °F 60.1 °F 62.2 °F
Dew Point: 58.9 °F 60.4 °F 57.5 °F 58.8 °F
Humidity: 92% 93% 82% 89%
Wind Speed: 0mph 0mph 0mph 0mph
Wind Gust: 0mph 0mph - -
WindCalm - -
Pressure: 29.77 in 29.77 in 29.69 in -
Precipitation: 0.00 in      
 
 
Tabular Data for July 14, 2020
Time Temperature Dew Point Pressure Wind Wind Speed Wind Gust Humidity Rainfall Rate (Hourly) solar
00:04 65.3 °F 59.7 °F 29.71 in Calm     82% 0.00 in W/m2
00:09 65.3 °F 59.8 °F 29.72 in Calm     82.5% 0.00 in W/m2
00:14 65.1 °F 60.2 °F 29.71 in Calm     84% 0.00 in W/m2
00:19 65.1 °F 60.2 °F 29.71 in Calm     84% 0.00 in W/m2
00:24 65 °F 60.4 °F 29.71 in Calm     84.8% 0.00 in W/m2
00:29 64.9 °F 60.3 °F 29.70 in Calm     85% 0.00 in W/m2
00:34 64.8 °F 60.2 °F 29.70 in Calm     85% 0.00 in W/m2
00:39 64.6 °F 60 °F 29.70 in Calm     85% 0.00 in W/m2
00:44 64.4 °F 59.8 °F 29.70 in Calm     85% 0.00 in W/m2
00:49 64.4 °F 59.8 °F 29.70 in Calm     85% 0.00 in W/m2
00:54 64.4 °F 59.9 °F 29.70 in Calm     85.4% 0.00 in W/m2
00:59 64.4 °F 60.1 °F 29.70 in Calm     86% 0.00 in W/m2
01:04 64.4 °F 60 °F 29.69 in Calm     85.9% 0.00 in W/m2
01:09 64.3 °F 59.9 °F 29.69 in Calm     85.5% 0.00 in W/m2
01:14 64.2 °F 59.6 °F 29.69 in Calm     85% 0.00 in W/m2
01:19 64.2 °F 59.6 °F 29.69 in Calm     85% 0.00 in W/m2
01:24 64.1 °F 59.6 °F 29.70 in Calm     85% 0.00 in W/m2
01:29 64 °F 59.7 °F 29.70 in Calm     85.6% 0.00 in W/m2
01:34 64 °F 59.8 °F 29.70 in Calm     86% 0.00 in W/m2
01:39 63.9 °F 59.7 °F 29.70 in Calm     86% 0.00 in W/m2
01:44 63.9 °F 59.6 °F 29.70 in Calm     86% 0.00 in W/m2
01:49 63.7 °F 59.4 °F 29.70 in Calm     86% 0.00 in W/m2
01:54 63.7 °F 59.4 °F 29.70 in Calm     86% 0.00 in W/m2
01:59 63.6 °F 59.3 °F 29.70 in Calm     86% 0.00 in W/m2
02:04 63.5 °F 59.3 °F 29.70 in Calm     86% 0.00 in W/m2
02:09 63.5 °F 59.3 °F 29.70 in Calm     86% 0.00 in W/m2
02:14 63.3 °F 59.1 °F 29.70 in Calm     86% 0.00 in W/m2
02:19 63.3 °F 59.1 °F 29.70 in Calm     86% 0.00 in W/m2
02:24 63.1 °F 58.9 °F 29.70 in Calm     86% 0.00 in W/m2
02:29 63.1 °F 58.9 °F 29.70 in Calm     86% 0.00 in W/m2
02:34 63 °F 59.1 °F 29.70 in Calm     87% 0.00 in W/m2
02:39 63 °F 59 °F 29.70 in Calm     87% 0.00 in W/m2
02:44 63 °F 59 °F 29.70 in Calm     87% 0.00 in W/m2
02:49 63 °F 59 °F 29.70 in Calm     87% 0.00 in W/m2
02:54 62.9 °F 59 °F 29.70 in Calm     87% 0.00 in W/m2
02:59 62.8 °F 58.9 °F 29.70 in Calm     87% 0.00 in W/m2
03:04 62.7 °F 58.8 °F 29.70 in Calm     87% 0.00 in W/m2
03:09 62.6 °F 58.7 °F 29.70 in Calm     87% 0.00 in W/m2
03:14 62.5 °F 58.8 °F 29.70 in Calm     87.5% 0.00 in W/m2
03:19 62.4 °F 58.8 °F 29.70 in Calm     88% 0.00 in W/m2
03:24 62.4 °F 58.8 °F 29.70 in Calm     88% 0.00 in W/m2
03:29 62.4 °F 58.8 °F 29.70 in Calm     88.2% 0.00 in W/m2
03:34 62.2 °F 59 °F 29.70 in Calm     89% 0.00 in W/m2
03:39 62.2 °F 59 °F 29.70 in Calm     89% 0.00 in W/m2
03:44 62.1 °F 58.9 °F 29.70 in Calm     89% 0.00 in W/m2
03:49 62.1 °F 58.8 °F 29.70 in Calm     89% 0.00 in W/m2
03:54 62.1 °F 58.8 °F 29.70 in Calm     89% 0.00 in W/m2
03:59 62.1 °F 58.8 °F 29.70 in Calm     89% 0.00 in W/m2
04:04 62.1 °F 58.8 °F 29.70 in Calm     89% 0.00 in W/m2
04:09 62.1 °F 58.8 °F 29.70 in Calm     89% 0.00 in W/m2
04:14 62 °F 58.7 °F 29.70 in Calm     89% 0.00 in W/m2
04:19 61.9 °F 58.6 °F 29.70 in Calm     89% 0.00 in W/m2
04:24 61.8 °F 58.5 °F 29.70 in Calm     89% 0.00 in W/m2
04:29 61.7 °F 58.4 °F 29.70 in Calm     89% 0.00 in W/m2
04:34 61.5 °F 58.3 °F 29.71 in Calm     89% 0.00 in W/m2
04:39 61.5 °F 58.3 °F 29.71 in Calm     89% 0.00 in W/m2
04:44 61.3 °F 58.1 °F 29.71 in Calm     89% 0.00 in W/m2
04:49 61.2 °F 57.9 °F 29.72 in Calm     89% 0.00 in W/m2
04:54 61.1 °F 57.9 °F 29.72 in Calm     89.4% 0.00 in W/m2
04:59 61 °F 58 °F 29.72 in Calm     90% 0.00 in W/m2
05:04 60.9 °F 58 °F 29.73 in Calm     90% 0.00 in W/m2
05:09 60.8 °F 57.9 °F 29.73 in Calm     90% 0.00 in W/m2
05:14 60.8 °F 57.9 °F 29.73 in Calm     90% 0.00 in W/m2
05:19 60.7 °F 58 °F 29.73 in Calm     90.7% 0.00 in W/m2
05:24 60.6 °F 58 °F 29.73 in Calm     91% 0.00 in W/m2
05:29 60.6 °F 58 °F 29.74 in Calm     91% 0.00 in W/m2
05:34 60.4 °F 57.8 °F 29.74 in Calm     91% 0.00 in W/m2
05:39 60.4 °F 57.8 °F 29.74 in Calm     91% 0.00 in W/m2
05:44 60.3 °F 57.6 °F 29.74 in Calm     91% 0.00 in W/m2
05:49 60.3 °F 57.6 °F 29.75 in Calm     91% 0.00 in W/m2
05:54 60.2 °F 57.6 °F 29.75 in Calm     91% 0.00 in W/m2
05:59 60.1 °F 57.5 °F 29.75 in Calm     91% 0.00 in W/m2
06:04 60.1 °F 57.5 °F 29.75 in Calm     91% 0.00 in W/m2
06:09 60.1 °F 57.5 °F 29.76 in Calm     91% 0.00 in W/m2
06:14 60.1 °F 57.5 °F 29.76 in Calm     91% 0.00 in W/m2
06:19 60.3 °F 57.6 °F 29.76 in Calm     91% 0.00 in W/m2
06:24 60.3 °F 57.9 °F 29.76 in Calm     91.9% 0.00 in W/m2
06:29 60.3 °F 57.9 °F 29.75 in Calm     92% 0.00 in W/m2
06:34 60.3 °F 57.9 °F 29.76 in Calm     92% 0.00 in W/m2
06:39 60.3 °F 57.9 °F 29.76 in Calm     92% 0.00 in W/m2
06:49 60.3 °F 57.9 °F 29.77 in Calm     92% 0.00 in W/m2
06:54 60.2 °F 57.8 °F 29.77 in Calm     92% 0.00 in W/m2
06:59 60.2 °F 57.9 °F 29.77 in Calm     92% 0.00 in W/m2
07:04 60.3 °F 57.9 °F 29.77 in Calm     92% 0.00 in W/m2
07:09 60.3 °F 57.9 °F 29.77 in Calm     92% 0.00 in W/m2
07:14 60.3 °F 58 °F 29.77 in Calm     92.2% 0.00 in W/m2
07:19 60.4 °F 58.4 °F 29.76 in Calm     93% 0.00 in W/m2
07:24 60.6 °F 58.6 °F 29.77 in Calm     93% 0.00 in W/m2
07:29 60.8 °F 58.5 °F 29.77 in Calm     92.2% 0.00 in W/m2
07:34 60.8 °F 58.5 °F 29.77 in Calm     92% 0.00 in W/m2
07:39 60.9 °F 58.6 °F 29.77 in Calm     92% 0.00 in W/m2
07:44 61.1 °F 58.7 °F 29.77 in Calm     92% 0.00 in W/m2
07:49 61.2 °F 58.9 °F 29.77 in Calm     92% 0.00 in W/m2
Juneau County Weather
Compliments of Weather Underground - 4 mb